Time;durP1;ratioP1;P1;durP2;ratioP2;P2;SDS_P1;SDS_P2;PMS_P1;PMS_P2;Temp;Humidity;BMP_temperature;BMP_pressure;BME280_temperature;BME280_humidity;BME280_pressure;Samples;Min_cycle;Max_cycle;Signal;HPM_P1;HPM_P2
2023/03/06 00:00:40;;;;;;;2.17;0.70;;;;;;;3.04;100.00;100357.13;6326224;28;20052;-72
2023/03/06 00:03:43;;;;;;;2.00;0.73;;;;;;;3.09;100.00;100353.53;6325966;28;20463;-72
2023/03/06 00:06:44;;;;;;;1.35;0.47;;;;;;;3.10;100.00;100348.31;6325689;28;20048;-72
2023/03/06 00:09:46;;;;;;;1.83;0.90;;;;;;;3.12;100.00;100348.25;6324916;28;20052;-72
2023/03/06 00:12:47;;;;;;;2.38;0.90;;;;;;;3.13;100.00;100350.78;6300263;28;20356;-72
2023/03/06 00:15:49;;;;;;;1.02;0.65;;;;;;;3.14;100.00;100343.88;6300261;28;20049;-72
2023/03/06 00:18:51;;;;;;;5.72;1.23;;;;;;;3.11;100.00;100338.78;6300573;28;20059;-72
2023/03/06 00:21:53;;;;;;;5.60;1.00;;;;;;;3.12;100.00;100335.28;6302108;28;20053;-71
2023/03/06 00:24:55;;;;;;;0.85;0.60;;;;;;;3.16;100.00;100339.47;6325384;28;20044;-72
2023/03/06 00:27:56;;;;;;;2.13;0.82;;;;;;;3.16;100.00;100342.09;6325274;28;20056;-72
2023/03/06 00:30:57;;;;;;;1.58;0.60;;;;;;;3.10;100.00;100345.72;6325220;28;20071;-72
2023/03/06 00:34:00;;;;;;;4.07;0.95;;;;;;;3.04;100.00;100344.16;6323332;28;20344;-72
2023/03/06 00:37:01;;;;;;;2.20;0.75;;;;;;;3.03;100.00;100341.59;6325024;28;20047;-72
2023/03/06 00:40:05;;;;;;;2.17;0.68;;;;;;;3.10;100.00;100330.13;6317033;28;20055;-72
2023/03/06 00:43:06;;;;;;;2.05;1.30;;;;;;;3.02;100.00;100337.28;6325299;28;20047;-71
2023/03/06 00:46:07;;;;;;;1.35;0.70;;;;;;;3.10;100.00;100332.72;6325120;28;20043;-71
2023/03/06 00:49:10;;;;;;;1.00;0.70;;;;;;;3.08;100.00;100334.50;6324926;28;20040;-72
2023/03/06 00:52:12;;;;;;;2.92;0.60;;;;;;;3.05;100.00;100327.69;6323184;28;20339;-72
2023/03/06 00:55:14;;;;;;;2.30;0.98;;;;;;;3.06;100.00;100333.72;6324187;28;20048;-72
2023/03/06 00:58:15;;;;;;;4.63;0.93;;;;;;;3.09;100.00;100325.84;6324886;28;20049;-72
2023/03/06 01:01:16;;;;;;;1.58;0.60;;;;;;;3.09;100.00;100324.97;6324858;28;20557;-72
2023/03/06 01:04:19;;;;;;;5.95;0.88;;;;;;;3.05;100.00;100322.50;6324953;28;20047;-72
2023/03/06 01:07:20;;;;;;;1.13;0.73;;;;;;;3.07;100.00;100321.59;6324716;28;20044;-72
2023/03/06 01:10:22;;;;;;;3.67;1.48;;;;;;;3.00;100.00;100321.78;6324683;28;20451;-72
2023/03/06 01:13:23;;;;;;;3.40;1.30;;;;;;;3.01;100.00;100317.44;6324723;28;20044;-72
2023/03/06 01:16:25;;;;;;;1.85;0.85;;;;;;;3.02;100.00;100309.59;6324344;28;20070;-72
2023/03/06 01:19:28;;;;;;;1.55;0.70;;;;;;;2.98;100.00;100310.56;6318562;28;20398;-72
2023/03/06 01:22:29;;;;;;;6.38;1.08;;;;;;;3.03;100.00;100305.25;6300578;28;20055;-72
2023/03/06 01:25:30;;;;;;;1.92;0.95;;;;;;;3.03;100.00;100297.47;6326882;28;20059;-71
2023/03/06 01:28:33;;;;;;;2.40;1.23;;;;;;;3.08;100.00;100295.56;6329305;28;20455;-72
2023/03/06 01:31:35;;;;;;;1.20;0.75;;;;;;;3.12;100.00;100299.78;6329331;28;20462;-72
2023/03/06 01:34:37;;;;;;;4.72;1.20;;;;;;;3.11;100.00;100294.63;6329238;28;20457;-72
2023/03/06 01:37:39;;;;;;;1.10;0.63;;;;;;;3.13;100.00;100296.28;6321048;28;20051;-72
2023/03/06 01:40:41;;;;;;;1.38;0.70;;;;;;;3.05;100.00;100288.75;6329263;28;20056;-72
2023/03/06 01:43:44;;;;;;;4.78;0.80;;;;;;;2.98;100.00;100284.63;6329086;28;20055;-72
2023/03/06 01:46:46;;;;;;;1.80;1.02;;;;;;;3.05;100.00;100280.94;6320912;28;20047;-72
2023/03/06 01:49:48;;;;;;;2.17;1.27;;;;;;;3.08;100.00;100279.16;6329001;28;20047;-72
2023/03/06 01:52:53;;;;;;;4.25;0.85;;;;;;;3.11;100.00;100276.47;6327309;28;20043;-72
2023/03/06 01:55:55;;;;;;;5.72;1.10;;;;;;;3.12;100.00;100271.22;6328249;28;20056;-72
2023/03/06 01:58:58;;;;;;;1.00;0.65;;;;;;;3.07;100.00;100269.66;6328947;28;20059;-72
2023/03/06 02:02:01;;;;;;;1.75;0.90;;;;;;;3.06;100.00;100276.59;6328683;28;20048;-72
2023/03/06 02:05:07;;;;;;;0.90;0.73;;;;;;;3.14;100.00;100276.38;6328645;28;20044;-72
2023/03/06 02:08:11;;;;;;;0.38;0.38;;;;;;;3.14;100.00;100272.03;6328395;28;20451;-72
2023/03/06 02:11:15;;;;;;;0.70;0.50;;;;;;;3.07;100.00;100267.91;6328637;28;20048;-72
2023/03/06 02:14:17;;;;;;;1.45;0.90;;;;;;;3.00;100.00;100269.00;6328196;28;20043;-72
2023/03/06 02:17:21;;;;;;;6.40;0.77;;;;;;;2.97;100.00;100256.97;6328409;28;20047;-72
2023/03/06 02:20:28;;;;;;;1.25;0.85;;;;;;;2.95;100.00;100257.91;6328122;28;20067;-71
2023/03/06 02:23:37;;;;;;;0.93;0.70;;;;;;;2.98;100.00;100263.84;6322249;28;20056;-72
2023/03/06 02:26:42;;;;;;;2.03;1.05;;;;;;;2.97;100.00;100258.72;6327280;28;20059;-72
2023/03/06 02:29:43;;;;;;;1.27;0.80;;;;;;;2.94;100.00;100256.19;6328234;28;20044;-72
2023/03/06 02:32:45;;;;;;;2.30;0.85;;;;;;;2.92;100.00;100256.25;6327603;28;20039;-72
2023/03/06 02:35:51;;;;;;;1.67;0.70;;;;;;;2.90;100.00;100249.41;6301294;28;20060;-72
2023/03/06 02:38:52;;;;;;;8.10;1.13;;;;;;;2.93;100.00;100249.31;6302749;28;20441;-71
2023/03/06 02:41:55;;;;;;;1.95;1.25;;;;;;;2.86;100.00;100251.25;6302533;28;20349;-71
2023/03/06 02:45:01;;;;;;;12.00;4.07;;;;;;;2.82;100.00;100247.06;6302618;28;20048;-71
2023/03/06 02:48:02;;;;;;;1.80;1.52;;;;;;;2.76;100.00;100242.03;6302318;28;20047;-70
2023/03/06 02:51:03;;;;;;;3.17;1.85;;;;;;;2.61;100.00;100235.53;6302462;28;20068;-70
2023/03/06 02:54:05;;;;;;;4.68;2.53;;;;;;;2.58;100.00;100235.63;6308137;28;20040;-70
2023/03/06 02:57:08;;;;;;;4.90;1.73;;;;;;;2.57;100.00;100239.13;6327149;28;20047;-70
2023/03/06 03:00:10;;;;;;;2.78;1.65;;;;;;;2.56;100.00;100239.19;6327268;28;20051;-70
2023/03/06 03:03:12;;;;;;;2.60;1.30;;;;;;;2.43;100.00;100236.06;6327445;28;20040;-70
2023/03/06 03:06:13;;;;;;;1.90;0.90;;;;;;;2.39;100.00;100234.44;6326845;28;20040;-71
2023/03/06 03:09:15;;;;;;;1.77;1.00;;;;;;;2.37;100.00;100239.69;6314195;28;20052;-71
2023/03/06 03:12:18;;;;;;;0.88;0.60;;;;;;;2.25;100.00;100235.69;6302008;28;20049;-70
2023/03/06 03:15:19;;;;;;;1.52;0.85;;;;;;;2.18;100.00;100231.56;6301692;28;20056;-71
2023/03/06 03:18:20;;;;;;;3.15;0.93;;;;;;;2.06;100.00;100223.28;6301983;28;20056;-70
2023/03/06 03:21:22;;;;;;;0.80;0.77;;;;;;;2.00;100.00;100219.97;6301657;28;20045;-70
2023/03/06 03:24:23;;;;;;;0.35;0.35;;;;;;;1.90;100.00;100215.91;6316087;28;20043;-71
2023/03/06 03:27:26;;;;;;;0.63;0.60;;;;;;;1.89;100.00;100210.75;6326572;28;20047;-70
2023/03/06 03:30:27;;;;;;;0.88;0.73;;;;;;;1.98;100.00;100216.53;6326548;28;20363;-71
2023/03/06 03:33:29;;;;;;;0.90;0.50;;;;;;;2.03;100.00;100217.28;6326475;28;20052;-71
2023/03/06 03:36:30;;;;;;;0.88;0.70;;;;;;;2.03;100.00;100211.25;6325999;28;20352;-71
2023/03/06 03:39:31;;;;;;;0.30;0.30;;;;;;;2.01;100.00;100205.25;6323771;28;20055;-71
2023/03/06 03:42:34;;;;;;;0.22;0.22;;;;;;;1.92;100.00;100205.50;6326466;28;20069;-70
2023/03/06 03:45:35;;;;;;;0.35;0.30;;;;;;;1.91;100.00;100204.66;6326100;28;20048;-70
2023/03/06 03:48:37;;;;;;;0.28;0.28;;;;;;;1.82;100.00;100197.13;6323359;28;20052;-71
2023/03/06 03:51:38;;;;;;;0.30;0.30;;;;;;;1.76;100.00;100198.13;6326235;28;20052;-71
2023/03/06 03:54:40;;;;;;;0.40;0.40;;;;;;;1.76;100.00;100198.13;6325881;28;20044;-71
2023/03/06 03:57:42;;;;;;;1.77;0.40;;;;;;;1.74;100.00;100189.56;6325831;28;20067;-71
2023/03/06 04:00:44;;;;;;;0.63;0.40;;;;;;;1.72;100.00;100186.13;6326121;28;20135;-71
2023/03/06 04:03:45;;;;;;;0.70;0.50;;;;;;;1.75;100.00;100185.22;6326063;28;20432;-71
2023/03/06 04:06:47;;;;;;;0.40;0.40;;;;;;;1.66;100.00;100177.69;6325836;28;20055;-71
2023/03/06 04:09:48;;;;;;;0.30;0.30;;;;;;;1.71;100.00;100176.69;6325783;28;20181;-71
2023/03/06 04:12:51;;;;;;;1.75;0.52;;;;;;;1.66;100.00;100168.19;6317193;28;20048;-71
2023/03/06 04:15:54;;;;;;;0.77;0.40;;;;;;;1.74;100.00;100171.41;6323733;28;20051;-71
2023/03/06 04:18:56;;;;;;;0.85;0.20;;;;;;;1.67;100.00;100167.28;6325195;28;20043;-71
2023/03/06 04:21:57;;;;;;;0.30;0.22;;;;;;;1.62;100.00;100173.47;6325613;28;20048;-71
2023/03/06 04:24:58;;;;;;;0.40;0.35;;;;;;;1.57;100.00;100164.97;6325437;28;20051;-71
2023/03/06 04:28:01;;;;;;;0.32;0.32;;;;;;;1.53;100.00;100167.63;6325371;28;20325;-71
2023/03/06 04:31:03;;;;;;;0.30;0.30;;;;;;;1.55;100.00;100164.19;6325288;28;20052;-71
2023/03/06 04:34:04;;;;;;;1.08;0.50;;;;;;;1.58;100.00;100170.09;6325401;28;20040;-71
2023/03/06 04:37:06;;;;;;;0.52;0.30;;;;;;;1.57;100.00;100164.97;6324025;28;20044;-71
2023/03/06 04:40:10;;;;;;;0.75;0.50;;;;;;;1.55;100.00;100153.81;6313467;28;20044;-72
2023/03/06 04:43:13;;;;;;;0.15;0.15;;;;;;;1.49;100.00;100154.81;6318417;28;20044;-71
2023/03/06 04:46:14;;;;;;;0.95;0.88;;;;;;;1.40;100.00;100147.28;6307381;28;20040;-71
2023/03/06 04:49:16;;;;;;;0.85;0.40;;;;;;;1.29;100.00;100142.38;6310066;28;20322;-71
2023/03/06 04:52:17;;;;;;;1.33;0.57;;;;;;;1.31;100.00;100150.09;6307877;28;20436;-71
2023/03/06 04:55:19;;;;;;;0.43;0.30;;;;;;;1.34;100.00;100145.69;6307682;28;20056;-74
2023/03/06 04:58:22;;;;;;;0.20;0.20;;;;;;;1.35;100.00;100152.56;6306239;28;20047;-74
2023/03/06 05:01:23;;;;;;;0.10;0.10;;;;;;;1.30;100.00;100153.59;6311669;28;20045;-71
2023/03/06 05:04:24;;;;;;;0.32;0.32;;;;;;;1.35;100.00;100146.56;6312959;28;20048;-71
2023/03/06 05:07:26;;;;;;;0.20;0.20;;;;;;;1.35;100.00;100141.38;6308257;28;20044;-71
2023/03/06 05:10:28;;;;;;;0.13;0.13;;;;;;;1.38;100.00;100149.91;6311410;28;20075;-71
2023/03/06 05:13:30;;;;;;;0.90;0.63;;;;;;;1.39;100.00;100146.44;6313112;28;20502;-71
2023/03/06 05:16:31;;;;;;;0.57;0.30;;;;;;;1.38;100.00;100138.72;6308423;28;20044;-71
2023/03/06 05:19:33;;;;;;;0.22;0.20;;;;;;;1.37;100.00;100137.88;6308973;28;20044;-71
2023/03/06 05:22:34;;;;;;;0.30;0.30;;;;;;;1.32;100.00;100128.50;6307628;28;20580;-71
2023/03/06 05:25:38;;;;;;;0.93;0.60;;;;;;;1.34;100.00;100135.34;6310300;28;20055;-71
2023/03/06 05:28:41;;;;;;;1.50;0.30;;;;;;;1.40;100.00;100139.50;6308720;28;20050;-71
2023/03/06 05:31:42;;;;;;;0.85;0.43;;;;;;;1.36;100.00;100136.16;6317895;28;20492;-71
2023/03/06 05:34:43;;;;;;;0.73;0.40;;;;;;;1.31;100.00;100127.66;6310195;28;20044;-72
2023/03/06 05:37:45;;;;;;;1.88;0.40;;;;;;;1.30;100.00;100127.69;6323528;28;20451;-70
2023/03/06 05:40:46;;;;;;;0.52;0.52;;;;;;;1.25;100.00;100131.25;6329259;28;20051;-71
2023/03/06 05:43:49;;;;;;;0.25;0.25;;;;;;;1.20;100.00;100132.25;6329006;28;20322;-71
2023/03/06 05:46:50;;;;;;;0.45;0.40;;;;;;;1.11;100.00;100132.50;6327460;28;20044;-71
2023/03/06 05:49:52;;;;;;;1.70;0.88;;;;;;;1.03;100.00;100130.09;6310770;28;20068;-71
2023/03/06 05:52:53;;;;;;;0.80;0.35;;;;;;;1.02;100.00;100129.22;6303382;28;20053;-71
2023/03/06 05:55:58;;;;;;;0.30;0.30;;;;;;;1.07;100.00;100129.13;6303573;28;20457;-70
2023/03/06 05:59:01;;;;;;;0.70;0.38;;;;;;;1.15;100.00;100134.13;6303653;28;20049;-70
2023/03/06 06:02:04;;;;;;;0.55;0.55;;;;;;;1.05;100.00;100124.88;6303698;28;20053;-71
2023/03/06 06:05:06;;;;;;;0.35;0.35;;;;;;;1.03;100.00;100127.50;6303279;28;20393;-71
2023/03/06 06:08:07;;;;;;;2.63;1.27;;;;;;;0.99;100.00;100129.28;6303253;28;20048;-71
2023/03/06 06:11:10;;;;;;;0.93;0.70;;;;;;;1.03;100.00;100127.50;6319834;28;20044;-71
2023/03/06 06:14:13;;;;;;;2.38;1.30;;;;;;;1.06;100.00;100126.59;6305591;28;20048;-71
2023/03/06 06:17:15;;;;;;;2.40;1.50;;;;;;;1.12;100.00;100124.69;6328155;28;20056;-71
2023/03/06 06:20:17;;;;;;;1.83;1.00;;;;;;;1.14;100.00;100122.06;6328429;28;20044;-71
2023/03/06 06:23:18;;;;;;;0.75;0.60;;;;;;;1.17;100.00;100124.56;6328108;28;20499;-71
2023/03/06 06:26:19;;;;;;;0.77;0.73;;;;;;;1.21;100.00;100121.03;6328067;28;20051;-71
2023/03/06 06:29:23;;;;;;;1.88;0.77;;;;;;;1.22;100.00;100120.97;6327944;28;20376;-71
2023/03/06 06:32:25;;;;;;;1.15;0.90;;;;;;;1.24;100.00;100121.78;6328146;28;20044;-71
2023/03/06 06:35:26;;;;;;;0.88;0.60;;;;;;;1.25;100.00;100120.06;6327807;28;20043;-71
2023/03/06 06:38:27;;;;;;;0.93;0.65;;;;;;;1.24;100.00;100115.78;6327785;28;20040;-71
2023/03/06 06:41:29;;;;;;;1.70;0.85;;;;;;;1.24;100.00;100120.94;6327870;28;20616;-71
2023/03/06 06:44:32;;;;;;;0.32;0.32;;;;;;;1.23;100.00;100120.09;6325871;28;20048;-71
2023/03/06 06:47:33;;;;;;;1.38;1.13;;;;;;;1.22;100.00;100120.97;6327607;28;20051;-71
2023/03/06 06:50:35;;;;;;;2.60;1.40;;;;;;;1.20;100.00;100122.75;6320305;28;20134;-71
2023/03/06 06:53:36;;;;;;;1.02;0.88;;;;;;;1.21;100.00;100129.63;6312555;28;20060;-70
2023/03/06 06:56:37;;;;;;;0.93;0.50;;;;;;;1.18;100.00;100126.25;6324340;28;20048;-71
2023/03/06 06:59:40;;;;;;;1.27;0.90;;;;;;;1.16;100.00;100125.47;6327255;28;20363;-72
2023/03/06 07:02:42;;;;;;;1.13;0.60;;;;;;;1.21;100.00;100119.28;6327487;28;20044;-71
2023/03/06 07:05:43;;;;;;;0.80;0.57;;;;;;;1.29;100.00;100120.84;6318691;28;20360;-71
2023/03/06 07:08:44;;;;;;;8.05;3.55;;;;;;;1.27;100.00;100116.56;6327182;28;20052;-71
2023/03/06 07:11:46;;;;;;;6.13;2.22;;;;;;;1.21;100.00;100118.44;6327071;28;20048;-71
2023/03/06 07:14:48;;;;;;;7.78;3.08;;;;;;;1.21;100.00;100136.53;6325270;28;20044;-71
2023/03/06 07:17:50;;;;;;;6.72;2.20;;;;;;;1.21;100.00;100123.59;6326714;28;20058;-71
2023/03/06 07:20:52;;;;;;;13.40;5.78;;;;;;;1.25;100.00;100130.41;6326641;28;20051;-71
2023/03/06 07:23:56;;;;;;;12.80;5.63;;;;;;;1.25;100.00;100120.91;6326405;28;20048;-71
2023/03/06 07:26:57;;;;;;;6.97;2.53;;;;;;;1.26;100.00;100126.94;6326705;28;20048;-71
2023/03/06 07:30:00;;;;;;;1.58;0.95;;;;;;;1.24;100.00;100136.47;6326415;28;20051;-71
2023/03/06 07:33:01;;;;;;;1.23;0.77;;;;;;;1.17;100.00;100134.91;6326718;28;20048;-72
2023/03/06 07:36:03;;;;;;;1.38;1.05;;;;;;;1.22;100.00;100138.25;6326069;28;20589;-72
2023/03/06 07:39:04;;;;;;;6.13;1.92;;;;;;;1.20;100.00;100129.69;6326162;28;20356;-72
2023/03/06 07:42:06;;;;;;;2.92;1.30;;;;;;;1.26;100.00;100145.88;6326261;28;20066;-72
2023/03/06 07:45:11;;;;;;;4.28;2.30;;;;;;;1.18;100.00;100147.84;6324072;28;20438;-71
2023/03/06 07:48:13;;;;;;;3.22;1.95;;;;;;;1.16;100.00;100144.41;6326046;28;20040;-72
2023/03/06 07:51:17;;;;;;;27.33;6.25;;;;;;;1.18;100.00;100134.03;6325946;28;20350;-72
2023/03/06 07:54:18;;;;;;;2.10;1.00;;;;;;;1.18;100.00;100136.59;6325921;28;20041;-72
2023/03/06 07:57:20;;;;;;;2.08;1.00;;;;;;;1.23;100.00;100142.56;6322535;28;20059;-74
2023/03/06 08:00:24;;;;;;;1.88;0.65;;;;;;;1.24;100.00;100136.47;6311162;28;20444;-71
2023/03/06 08:03:25;;;;;;;0.95;0.52;;;;;;;1.30;100.00;100136.31;6302203;28;20044;-72
2023/03/06 08:06:27;;;;;;;0.60;0.50;;;;;;;1.35;100.00;100142.22;6302989;28;21635;-67
2023/03/06 08:09:29;;;;;;;0.65;0.65;;;;;;;1.35;100.00;100146.56;6300220;28;20052;-72
2023/03/06 08:12:31;;;;;;;1.13;0.60;;;;;;;1.37;100.00;100144.78;6306467;28;20075;-74
2023/03/06 08:15:33;;;;;;;0.30;0.30;;;;;;;1.42;100.00;100150.69;6296934;28;20040;-72
2023/03/06 08:18:35;;;;;;;0.43;0.40;;;;;;;1.32;100.00;100159.56;6306232;28;20049;-72
2023/03/06 08:21:36;;;;;;;4.93;1.30;;;;;;;1.34;100.00;100162.97;6298407;28;20048;-72
2023/03/06 08:24:38;;;;;;;0.40;0.38;;;;;;;1.32;100.00;100159.56;6299838;28;20064;-76
2023/03/06 08:27:39;;;;;;;0.47;0.47;;;;;;;1.40;100.00;100161.06;6307163;28;20049;-71
2023/03/06 08:30:42;;;;;;;0.30;0.30;;;;;;;1.43;100.00;100153.25;6306777;28;20053;-72
2023/03/06 08:33:43;;;;;;;3.38;1.23;;;;;;;1.35;100.00;100159.50;6310406;28;20048;-72
2023/03/06 08:36:45;;;;;;;0.50;0.50;;;;;;;1.45;100.00;100154.06;6309667;28;20059;-72
2023/03/06 08:39:46;;;;;;;1.20;1.10;;;;;;;1.43;100.00;100148.06;6316589;28;20048;-72
2023/03/06 08:42:48;;;;;;;1.80;0.82;;;;;;;1.49;100.00;100147.88;6308478;28;20044;-71
2023/03/06 08:45:53;;;;;;;0.20;0.20;;;;;;;1.53;100.00;100153.84;6311703;28;20044;-73
2023/03/06 08:48:54;;;;;;;1.90;0.57;;;;;;;1.47;100.00;100148.84;6307962;28;20157;-73
2023/03/06 08:51:56;;;;;;;0.57;0.28;;;;;;;1.58;100.00;100153.72;6305942;28;20047;-72
2023/03/06 08:55:02;;;;;;;0.68;0.65;;;;;;;1.66;100.00;100151.78;6312418;28;20044;-73
2023/03/06 08:58:04;;;;;;;0.73;0.30;;;;;;;1.77;100.00;100154.94;6312300;28;20060;-73
2023/03/06 09:01:12;;;;;;;1.98;0.73;;;;;;;1.79;100.00;100153.16;6309205;28;20060;-73
2023/03/06 09:04:14;;;;;;;1.10;0.77;;;;;;;1.83;100.00;100154.78;6319130;28;20052;-73
2023/03/06 09:07:15;;;;;;;1.50;0.77;;;;;;;1.85;100.00;100154.72;6321788;28;20056;-73
2023/03/06 09:10:19;;;;;;;0.40;0.25;;;;;;;1.82;100.00;100147.91;6321028;28;20052;-73
2023/03/06 09:13:21;;;;;;;0.50;0.30;;;;;;;1.91;100.00;100154.59;6309453;28;20052;-73
2023/03/06 09:16:24;;;;;;;3.45;1.10;;;;;;;1.90;100.00;100140.75;6307530;28;20097;-73
2023/03/06 09:19:26;;;;;;;3.05;1.50;;;;;;;1.86;100.00;100154.69;6305783;28;20044;-73
2023/03/06 09:22:27;;;;;;;10.07;3.03;;;;;;;1.87;100.00;100166.78;6307240;28;20118;-73
2023/03/06 09:25:28;;;;;;;1.48;0.70;;;;;;;1.79;100.00;100166.13;6305406;28;20053;-73
2023/03/06 09:28:30;;;;;;;2.08;0.75;;;;;;;1.76;100.00;100163.59;6313261;28;20047;-73
2023/03/06 09:31:32;;;;;;;0.85;0.60;;;;;;;1.85;100.00;100160.75;6315955;28;20059;-73
2023/03/06 09:34:34;;;;;;;2.58;1.23;;;;;;;1.97;100.00;100175.13;6309930;28;20057;-72
2023/03/06 09:37:35;;;;;;;2.03;1.08;;;;;;;2.03;100.00;100169.78;6311813;28;20048;-72
2023/03/06 09:40:51;;;;;;;1.75;1.13;;;;;;;2.05;100.00;100178.38;6313033;28;20071;-73
2023/03/06 09:43:56;;;;;;;1.77;0.90;;;;;;;1.85;100.00;100184.06;6305171;28;20049;-72
2023/03/06 09:47:27;;;;;;;1.17;0.63;;;;;;;1.68;100.00;100179.38;6313354;28;20045;-73
2023/03/06 09:50:35;;;;;;;0.90;0.90;;;;;;;1.59;100.00;100179.59;6310623;28;20094;-72
2023/03/06 09:53:54;;;;;;;1.02;0.70;;;;;;;1.57;100.00;100183.09;6312442;28;20055;-73
2023/03/06 09:56:55;;;;;;;1.42;1.00;;;;;;;1.65;100.00;100182.03;6321257;28;20055;-72
2023/03/06 10:00:01;;;;;;;3.00;0.65;;;;;;;1.66;100.00;100177.69;6317194;28;20048;-72
2023/03/06 10:03:15;;;;;;;1.20;0.88;;;;;;;1.68;100.00;100181.06;6314234;28;20364;-73
2023/03/06 10:06:20;;;;;;;1.40;0.95;;;;;;;1.70;100.00;100176.72;6303267;28;20041;-73
2023/03/06 10:09:26;;;;;;;0.68;0.68;;;;;;;1.81;100.00;100176.44;6311841;28;20067;-76
2023/03/06 10:12:30;;;;;;;1.73;1.30;;;;;;;1.84;100.00;100178.94;6304795;28;20048;-72
2023/03/06 10:15:34;;;;;;;2.38;1.40;;;;;;;1.84;100.00;100177.22;6311293;28;20052;-71
2023/03/06 10:18:38;;;;;;;2.50;1.58;;;;;;;2.00;100.00;100178.50;6303393;28;20045;-72
2023/03/06 10:21:47;;;;;;;1.67;1.40;;;;;;;1.88;100.00;100185.75;6303153;28;20044;-71
2023/03/06 10:24:54;;;;;;;2.78;1.67;;;;;;;1.85;100.00;100185.81;6303259;28;20119;-73
2023/03/06 10:28:02;;;;;;;3.95;2.17;;;;;;;2.04;100.00;100192.19;6302887;28;20044;-71
2023/03/06 10:31:09;;;;;;;0.60;0.50;;;;;;;1.98;100.00;100192.38;6303051;28;20055;-73
2023/03/06 10:34:20;;;;;;;3.22;1.60;;;;;;;1.97;100.00;100186.34;6310691;28;20076;-72
2023/03/06 10:37:22;;;;;;;5.93;1.73;;;;;;;1.89;100.00;100185.69;6302786;28;20076;-73
2023/03/06 10:40:34;;;;;;;4.85;2.03;;;;;;;1.92;100.00;100172.69;6325130;28;20040;-71
2023/03/06 10:43:37;;;;;;;4.93;1.48;;;;;;;2.04;100.00;100179.25;6326576;28;20048;-72
2023/03/06 10:46:41;;;;;;;2.42;1.60;;;;;;;2.21;100.00;100169.25;6327487;28;20051;-72
2023/03/06 10:49:57;;;;;;;1.60;1.30;;;;;;;2.33;100.00;100177.59;6327749;28;20124;-72
2023/03/06 10:53:03;;;;;;;4.22;1.65;;;;;;;2.29;100.00;100182.88;6321405;28;20055;-72
2023/03/06 10:56:05;;;;;;;3.90;1.45;;;;;;;2.33;100.00;100183.63;6326285;28;20424;-72
2023/03/06 10:59:08;;;;;;;3.83;1.38;;;;;;;2.34;100.00;100185.31;6322262;28;20377;-71
2023/03/06 11:02:25;;;;;;;2.17;1.20;;;;;;;2.34;100.00;100190.50;6310137;28;20040;-74
2023/03/06 11:05:28;;;;;;;2.60;1.65;;;;;;;2.19;100.00;100193.53;6310347;28;20040;-72
2023/03/06 11:08:30;;;;;;;2.38;1.35;;;;;;;2.33;100.00;100190.56;6300758;28;20056;-72
2023/03/06 11:11:31;;;;;;;2.70;1.45;;;;;;;2.36;100.00;100199.06;6323710;28;20051;-74
2023/03/06 11:14:32;;;;;;;2.03;1.13;;;;;;;2.34;100.00;100194.84;6326879;28;20044;-73
2023/03/06 11:17:36;;;;;;;3.15;1.45;;;;;;;2.47;100.00;100197.03;6326726;28;20052;-74
2023/03/06 11:20:44;;;;;;;2.30;1.17;;;;;;;2.57;100.00;100192.44;6326885;28;20352;-74
2023/03/06 11:23:47;;;;;;;2.15;1.27;;;;;;;2.72;100.00;100193.72;6321055;28;20051;-75
2023/03/06 11:26:53;;;;;;;0.90;0.80;;;;;;;2.75;100.00;100191.88;6309815;28;20047;-72
2023/03/06 11:29:55;;;;;;;1.67;0.80;;;;;;;2.77;100.00;100197.00;6305438;28;20056;-72
2023/03/06 11:33:01;;;;;;;2.90;0.90;;;;;;;2.91;100.00;100199.22;6320603;28;20048;-72
2023/03/06 11:36:13;;;;;;;1.65;0.88;;;;;;;3.10;100.00;100196.91;6309349;28;20078;-72
2023/03/06 11:39:22;;;;;;;1.00;0.80;;;;;;;3.19;100.00;100194.84;6319960;28;20051;-73
2023/03/06 11:42:26;;;;;;;2.30;1.43;;;;;;;3.24;100.00;100190.34;6307410;28;20045;-73
2023/03/06 11:45:33;;;;;;;3.33;0.65;;;;;;;3.17;100.00;100186.25;6301786;28;20044;-71
2023/03/06 11:48:38;;;;;;;1.10;0.70;;;;;;;3.38;100.00;100176.94;6298694;28;20409;-74
2023/03/06 11:51:49;;;;;;;1.70;0.50;;;;;;;3.44;100.00;100179.31;6324076;28;20051;-73
2023/03/06 11:54:55;;;;;;;1.33;0.60;;;;;;;3.63;100.00;100174.34;6318632;28;20044;-73
2023/03/06 11:58:24;;;;;;;2.10;0.93;;;;;;;3.81;100.00;100178.06;6314978;28;20127;-73
2023/03/06 12:01:32;;;;;;;0.70;0.70;;;;;;;4.02;100.00;100176.47;6300114;28;20352;-73
2023/03/06 12:04:45;;;;;;;0.68;0.55;;;;;;;4.26;100.00;100175.56;6300804;28;20052;-73
2023/03/06 12:07:55;;;;;;;2.72;1.23;;;;;;;4.15;100.00;100171.69;6300596;28;20053;-73
2023/03/06 12:11:04;;;;;;;2.70;1.10;;;;;;;4.38;100.00;100160.44;6324115;28;20450;-73
2023/03/06 12:14:20;;;;;;;3.37;1.30;;;;;;;4.67;100.00;100164.53;6314173;28;20052;-74
2023/03/06 12:17:32;;;;;;;5.03;2.47;;;;;;;4.69;100.00;100157.53;6300662;28;20048;-73
2023/03/06 12:20:56;;;;;;;16.13;2.40;;;;;;;4.89;100.00;100162.78;6316341;28;20048;-72
2023/03/06 12:24:15;;;;;;;5.95;1.98;;;;;;;5.01;100.00;100153.66;6325837;28;20059;-73
2023/03/06 12:27:22;;;;;;;2.72;1.98;;;;;;;5.12;100.00;100158.41;6320028;28;20036;-73
2023/03/06 12:31:01;;;;;;;2.45;1.80;;;;;;;5.30;100.00;100153.31;6313773;28;20059;-72
2023/03/06 12:34:16;;;;;;;3.95;2.25;;;;;;;5.42;100.00;100145.91;6313845;28;20047;-72
2023/03/06 12:37:25;;;;;;;2.67;1.88;;;;;;;5.52;100.00;100137.63;6315465;28;20048;-74
2023/03/06 12:41:03;;;;;;;3.28;1.98;;;;;;;5.80;100.00;100136.44;6314658;28;20325;-74
2023/03/06 12:44:44;;;;;;;4.90;2.30;;;;;;;5.69;100.00;100131.72;6305415;28;20054;-74
2023/03/06 12:47:48;;;;;;;1.80;1.23;;;;;;;5.57;100.00;100133.06;6298985;28;20064;-74
2023/03/06 12:50:50;;;;;;;2.25;1.70;;;;;;;5.99;100.00;100123.47;6315922;28;20048;-70
2023/03/06 12:53:52;;;;;;;2.47;1.45;;;;;;;6.00;100.00;100125.19;6300122;28;20045;-74
2023/03/06 12:56:57;;;;;;;1.88;1.50;;;;;;;5.79;100.00;100119.97;6309517;28;20044;-74
2023/03/06 12:59:58;;;;;;;2.40;1.25;;;;;;;5.76;100.00;100124.44;6324787;28;20055;-74
2023/03/06 13:03:13;;;;;;;2.38;1.60;;;;;;;6.11;100.00;100117.72;6322838;28;20059;-74
2023/03/06 13:06:50;;;;;;;2.55;1.60;;;;;;;6.25;100.00;100111.88;6320567;28;20363;-74
2023/03/06 13:10:07;;;;;;;3.13;1.85;;;;;;;6.42;100.00;100119.78;6311812;28;20357;-71
2023/03/06 13:13:30;;;;;;;2.65;1.65;;;;;;;6.16;100.00;100107.91;6276205;28;20053;-75
2023/03/06 13:16:33;;;;;;;1.23;1.10;;;;;;;6.16;100.00;100101.84;6282736;28;20045;-75
2023/03/06 13:19:34;;;;;;;2.45;1.70;;;;;;;6.06;100.00;100098.81;6287134;28;20048;-74
2023/03/06 13:22:36;;;;;;;8.70;2.33;;;;;;;5.77;100.00;100100.94;6288679;28;20052;-74
2023/03/06 13:25:48;;;;;;;3.08;1.60;;;;;;;5.73;100.00;100104.59;6295377;28;20124;-74
2023/03/06 13:28:52;;;;;;;4.75;1.73;;;;;;;5.92;100.00;100096.84;6302524;28;20131;-74
2023/03/06 13:32:15;;;;;;;3.88;1.40;;;;;;;5.67;100.00;100099.63;6285396;28;20045;-75
2023/03/06 13:35:50;;;;;;;1.92;1.27;;;;;;;5.37;100.00;100101.81;6281911;28;20037;-75
2023/03/06 13:39:07;;;;;;;2.00;1.40;;;;;;;5.40;100.00;100098.22;6292305;28;20056;-74
2023/03/06 13:42:26;;;;;;;4.55;1.35;;;;;;;5.42;100.00;100089.44;6284928;28;20044;-74
2023/03/06 13:45:33;;;;;;;5.05;1.70;;;;;;;5.92;100.00;100078.59;6284985;28;20464;-75
2023/03/06 13:48:35;;;;;;;3.75;1.27;;;;;;;6.42;95.79;100085.84;6290174;28;20056;-74
2023/03/06 13:51:38;;;;;;;2.72;1.27;;;;;;;6.52;100.00;100083.66;6292023;28;20135;-75
2023/03/06 13:54:51;;;;;;;8.50;1.00;;;;;;;6.45;95.97;100082.22;6287261;28;20060;-75
2023/03/06 13:58:07;;;;;;;2.03;1.17;;;;;;;6.26;93.63;100084.84;6278717;28;20045;-76
2023/03/06 14:01:35;;;;;;;1.67;1.20;;;;;;;5.59;91.98;100083.50;6287279;28;20044;-75
2023/03/06 14:04:44;;;;;;;4.60;1.50;;;;;;;5.40;97.24;100083.41;6296434;28;20052;-75
2023/03/06 14:07:47;;;;;;;4.80;1.17;;;;;;;5.32;100.00;100080.31;6279508;28;20041;-75
2023/03/06 14:11:00;;;;;;;2.90;1.40;;;;;;;5.31;100.00;100082.09;6286986;28;20056;-75
2023/03/06 14:14:01;;;;;;;2.53;1.20;;;;;;;5.17;100.00;100076.56;6289181;28;20056;-76
2023/03/06 14:17:05;;;;;;;2.10;1.38;;;;;;;4.97;100.00;100069.59;6287242;28;21088;-75